createdAt,value
2022-12-01T00:01:41.312Z,5.20
2022-12-01T00:04:09.874Z,5.20
2022-12-01T00:06:39.327Z,5.20
2022-12-01T00:09:25.546Z,5.20
2022-12-01T00:11:54.083Z,5.20
2022-12-01T00:14:24.003Z,5.10
2022-12-01T00:16:53.020Z,5.10
2022-12-01T00:19:21.657Z,5.10
2022-12-01T00:21:50.183Z,5.10
2022-12-01T00:24:18.710Z,5.00
2022-12-01T00:26:47.886Z,5.00
2022-12-01T00:29:16.711Z,5.00
2022-12-01T00:31:46.654Z,5.00
2022-12-01T00:34:24.484Z,4.90
2022-12-01T00:36:54.006Z,4.90
2022-12-01T00:39:22.649Z,4.90
2022-12-01T00:41:51.375Z,4.80
2022-12-01T00:44:19.932Z,4.80
2022-12-01T00:46:49.865Z,4.80
2022-12-01T00:49:18.701Z,4.80
2022-12-01T00:51:47.265Z,4.80
2022-12-01T00:54:16.023Z,4.90
2022-12-01T00:56:44.839Z,4.80
2022-12-01T00:59:13.528Z,4.80
2022-12-01T01:01:42.323Z,4.80
2022-12-01T01:04:12.406Z,4.80
2022-12-01T01:06:43.492Z,4.70
2022-12-01T01:09:12.665Z,4.70
2022-12-01T01:11:41.735Z,4.70
2022-12-01T01:14:10.802Z,4.70
2022-12-01T01:16:39.456Z,4.70
2022-12-01T01:19:08.172Z,4.60
2022-12-01T01:21:38.071Z,4.60
2022-12-01T01:24:07.771Z,4.60
2022-12-01T01:26:37.345Z,4.60
2022-12-01T01:29:08.313Z,4.60
2022-12-01T01:31:37.739Z,4.60
2022-12-01T01:34:06.360Z,4.70
2022-12-01T01:36:35.088Z,4.60
2022-12-01T01:39:05.218Z,4.70
2022-12-01T01:41:33.941Z,4.70
2022-12-01T01:44:04.133Z,4.70
2022-12-01T01:46:34.848Z,4.60
2022-12-01T01:49:07.999Z,4.60
2022-12-01T01:51:42.084Z,4.60
2022-12-01T01:54:19.474Z,4.60
2022-12-01T01:56:52.102Z,4.60
2022-12-01T01:59:27.997Z,4.70
2022-12-01T02:02:06.272Z,4.60
2022-12-01T02:04:37.108Z,4.60
2022-12-01T02:07:06.470Z,4.60
2022-12-01T02:09:36.777Z,4.60
2022-12-01T02:12:23.389Z,4.60
2022-12-01T02:15:09.584Z,4.50
2022-12-01T02:17:48.211Z,4.50
2022-12-01T02:20:51.544Z,4.50
2022-12-01T02:24:22.147Z,4.50
2022-12-01T02:27:00.750Z,4.40
2022-12-01T02:30:10.275Z,4.50
2022-12-01T02:32:59.505Z,4.40
2022-12-01T02:35:37.186Z,4.40
2022-12-01T02:38:16.936Z,4.40
2022-12-01T02:40:53.407Z,4.20
2022-12-01T02:43:30.788Z,4.20
2022-12-01T02:46:08.285Z,4.20
2022-12-01T02:48:43.172Z,4.20
2022-12-01T02:51:17.584Z,4.20
2022-12-01T02:53:48.105Z,4.10
2022-12-01T02:56:22.327Z,4.20
2022-12-01T02:58:51.251Z,4.10
2022-12-01T03:01:58.185Z,4.10
2022-12-01T03:04:55.881Z,4.10
2022-12-01T03:07:46.414Z,4.10
2022-12-01T03:10:24.145Z,4.10
2022-12-01T03:13:11.081Z,4.10
2022-12-01T03:15:49.341Z,4.20
2022-12-01T03:18:31.018Z,4.10
2022-12-01T03:21:09.682Z,4.10
2022-12-01T03:23:44.809Z,4.10
2022-12-01T03:26:20.090Z,4.10
2022-12-01T03:29:07.506Z,4.00
2022-12-01T03:31:43.023Z,4.10
2022-12-01T03:34:19.264Z,4.10
2022-12-01T03:36:56.358Z,4.10
2022-12-01T03:39:32.310Z,4.10
2022-12-01T03:42:06.712Z,4.00
2022-12-01T03:44:43.225Z,4.00
2022-12-01T03:47:17.943Z,4.00
2022-12-01T03:49:48.904Z,4.00
2022-12-01T03:52:33.882Z,4.00
2022-12-01T03:55:13.128Z,3.90
2022-12-01T03:57:50.149Z,3.90
2022-12-01T04:00:20.743Z,3.90
2022-12-01T04:02:49.717Z,3.90
2022-12-01T04:05:23.869Z,3.90
2022-12-01T04:07:55.385Z,3.90
2022-12-01T04:10:24.639Z,3.90
2022-12-01T04:12:58.945Z,3.90
2022-12-01T04:15:28.607Z,4.00
2022-12-01T04:17:57.355Z,3.90
2022-12-01T04:20:25.931Z,3.90
2022-12-01T04:22:55.914Z,3.90
2022-12-01T04:25:24.475Z,3.90
2022-12-01T04:27:53.120Z,3.90
2022-12-01T04:30:21.793Z,3.90
2022-12-01T04:32:50.360Z,3.90
2022-12-01T04:35:19.102Z,3.90
2022-12-01T04:37:47.624Z,4.00
2022-12-01T04:40:19.069Z,3.90
2022-12-01T04:42:47.580Z,3.80
2022-12-01T04:45:16.370Z,3.70
2022-12-01T04:47:44.850Z,3.60
2022-12-01T04:50:13.623Z,3.70
2022-12-01T04:52:42.192Z,3.60
2022-12-01T04:55:11.682Z,3.60
2022-12-01T04:57:41.698Z,3.60
2022-12-01T05:00:13.425Z,3.60
2022-12-01T05:02:43.744Z,3.60
2022-12-01T05:05:12.865Z,3.70
2022-12-01T05:07:41.946Z,3.70
2022-12-01T05:10:12.814Z,3.70
2022-12-01T05:12:42.728Z,3.60
2022-12-01T05:15:12.006Z,3.60
2022-12-01T05:17:40.675Z,3.60
2022-12-01T05:20:38.411Z,3.60
2022-12-01T05:23:08.236Z,3.60
2022-12-01T05:25:39.481Z,3.60
2022-12-01T05:28:09.404Z,3.60
2022-12-01T05:30:37.982Z,3.60
2022-12-01T05:33:06.491Z,3.50
2022-12-01T05:35:35.501Z,3.50
2022-12-01T05:38:08.069Z,3.60
2022-12-01T05:40:37.135Z,3.50
2022-12-01T05:43:06.708Z,3.50
2022-12-01T05:45:37.058Z,3.50
2022-12-01T05:48:06.303Z,3.50
2022-12-01T05:50:38.485Z,3.50
2022-12-01T05:53:07.933Z,3.40
2022-12-01T05:55:36.459Z,3.40
2022-12-01T05:58:05.249Z,3.50
2022-12-01T06:00:38.514Z,3.50
2022-12-01T06:03:11.068Z,3.40
2022-12-01T06:05:39.682Z,3.40
2022-12-01T06:08:08.415Z,3.50
2022-12-01T06:10:37.092Z,3.50
2022-12-01T06:13:05.693Z,3.50
2022-12-01T06:15:37.741Z,3.50
2022-12-01T06:18:06.385Z,3.50
2022-12-01T06:20:34.996Z,3.50
2022-12-01T06:23:03.588Z,3.50
2022-12-01T06:25:32.181Z,3.50
2022-12-01T06:28:01.190Z,3.50
2022-12-01T06:30:29.719Z,3.40
2022-12-01T06:32:59.679Z,3.50
2022-12-01T06:35:28.278Z,3.40
2022-12-01T06:37:56.842Z,3.40
2022-12-01T06:40:25.654Z,3.50
2022-12-01T06:42:54.281Z,3.60
2022-12-01T06:45:22.828Z,3.80
2022-12-01T06:47:55.418Z,4.00
2022-12-01T06:50:26.184Z,4.30
2022-12-01T06:52:55.514Z,4.60
2022-12-01T06:55:24.426Z,4.90
2022-12-01T06:57:53.210Z,5.10
2022-12-01T07:00:22.899Z,5.50
2022-12-01T07:02:51.459Z,5.70
2022-12-01T07:05:20.119Z,5.70
2022-12-01T07:07:52.724Z,5.80
2022-12-01T07:10:24.994Z,6.00
2022-12-01T07:12:53.569Z,6.30
2022-12-01T07:15:23.436Z,6.50
2022-12-01T07:17:52.020Z,6.90
2022-12-01T07:20:20.556Z,7.30
2022-12-01T07:22:50.465Z,7.30
2022-12-01T07:25:19.127Z,7.10
2022-12-01T07:27:47.832Z,6.90
2022-12-01T07:30:16.740Z,6.80
2022-12-01T07:32:45.275Z,6.80
2022-12-01T07:35:14.130Z,6.70
2022-12-01T07:37:42.667Z,6.60
2022-12-01T07:40:14.718Z,6.50
2022-12-01T07:42:43.688Z,6.40
2022-12-01T07:45:12.626Z,6.30
2022-12-01T07:47:41.384Z,6.30
2022-12-01T07:50:11.171Z,6.10
2022-12-01T07:52:39.790Z,6.00
2022-12-01T07:55:09.228Z,6.00
2022-12-01T07:57:39.216Z,5.80
2022-12-01T08:00:09.658Z,5.80
2022-12-01T08:02:38.265Z,5.80
2022-12-01T08:05:07.626Z,5.80
2022-12-01T08:07:36.588Z,5.80
2022-12-01T08:10:06.215Z,5.70
2022-12-01T08:12:34.706Z,5.70
2022-12-01T08:15:05.210Z,5.80
2022-12-01T08:17:33.835Z,6.00
2022-12-01T08:20:02.376Z,6.10
2022-12-01T08:22:30.967Z,6.20
2022-12-01T08:24:59.470Z,6.30
2022-12-01T08:27:28.438Z,6.30
2022-12-01T08:29:57.028Z,6.30
2022-12-01T08:32:27.094Z,6.50
2022-12-01T08:34:55.636Z,6.50
2022-12-01T08:37:24.122Z,6.60
2022-12-01T08:39:52.672Z,6.60
2022-12-01T08:42:21.803Z,6.50
2022-12-01T08:44:50.360Z,6.50
2022-12-01T08:47:19.322Z,6.70
2022-12-01T08:49:49.493Z,6.70
2022-12-01T08:52:18.266Z,6.70
2022-12-01T08:54:46.914Z,6.70
2022-12-01T08:57:15.505Z,6.80
2022-12-01T08:59:44.571Z,6.90
2022-12-01T09:02:16.103Z,6.90
2022-12-01T09:04:45.020Z,7.00
2022-12-01T09:07:20.198Z,7.20
2022-12-01T09:09:51.723Z,7.40
2022-12-01T09:12:20.414Z,7.70
2022-12-01T09:14:49.877Z,7.90
2022-12-01T09:17:19.306Z,8.00
2022-12-01T09:19:48.347Z,7.90
2022-12-01T09:22:18.533Z,7.80
2022-12-01T09:24:47.138Z,7.90
2022-12-01T09:27:15.697Z,7.90
2022-12-01T09:29:44.320Z,7.90
2022-12-01T09:32:12.836Z,8.00
2022-12-01T09:34:41.628Z,8.10
2022-12-01T09:37:10.142Z,8.10
2022-12-01T09:39:40.079Z,8.30
2022-12-01T09:42:16.792Z,8.40
2022-12-01T09:44:51.214Z,8.50
2022-12-01T09:47:25.929Z,9.00
2022-12-01T09:50:03.147Z,9.90
2022-12-01T09:52:41.902Z,10.20
2022-12-01T09:55:15.796Z,10.80
2022-12-01T09:57:48.042Z,11.30
2022-12-01T10:00:20.995Z,11.60
2022-12-01T10:02:55.931Z,12.00
2022-12-01T10:05:28.132Z,12.40
2022-12-01T10:08:01.894Z,12.50
2022-12-01T10:10:37.565Z,12.40
2022-12-01T10:13:19.194Z,12.20
2022-12-01T10:15:57.430Z,12.40
2022-12-01T10:18:43.574Z,12.30
2022-12-01T10:21:23.535Z,12.00
2022-12-01T10:24:18.510Z,11.70
2022-12-01T10:27:00.563Z,11.60
2022-12-01T10:29:46.491Z,11.70
2022-12-01T10:32:21.653Z,11.40
2022-12-01T10:34:50.492Z,10.90
2022-12-01T10:37:23.620Z,10.60
2022-12-01T10:39:56.329Z,10.40
2022-12-01T10:42:33.773Z,10.50
2022-12-01T10:45:05.785Z,10.50
2022-12-01T10:47:34.682Z,10.30
2022-12-01T10:50:05.642Z,10.50
2022-12-01T10:52:38.458Z,10.80
2022-12-01T10:55:28.022Z,10.80
2022-12-01T10:58:06.222Z,10.60
2022-12-01T11:00:58.950Z,10.50
2022-12-01T11:03:32.719Z,10.10
2022-12-01T11:06:06.643Z,10.20
2022-12-01T11:08:42.093Z,10.20
2022-12-01T11:11:31.010Z,10.00
2022-12-01T11:14:06.054Z,10.20
2022-12-01T11:16:42.619Z,10.30
2022-12-01T11:19:28.927Z,10.20
2022-12-01T11:22:00.030Z,10.30
2022-12-01T11:24:43.357Z,10.60
2022-12-01T11:27:19.347Z,11.00
2022-12-01T11:29:53.542Z,11.20
2022-12-01T11:32:27.366Z,11.30
2022-12-01T11:35:01.021Z,11.30
2022-12-01T11:37:34.667Z,11.30
2022-12-01T11:40:24.963Z,11.00
2022-12-01T11:43:00.550Z,10.80
2022-12-01T11:45:37.125Z,10.60
2022-12-01T11:48:19.903Z,10.50
2022-12-01T11:51:08.572Z,10.50
2022-12-01T11:53:40.230Z,10.50
2022-12-01T11:56:23.555Z,10.50
2022-12-01T11:59:00.382Z,10.60
2022-12-01T12:01:45.626Z,10.30
2022-12-01T12:04:36.287Z,10.30
2022-12-01T12:07:19.950Z,10.00
2022-12-01T12:10:19.046Z,9.80
2022-12-01T12:13:10.611Z,9.60
2022-12-01T12:15:52.791Z,9.70
2022-12-01T12:18:56.622Z,9.80
2022-12-01T12:21:34.884Z,9.80
2022-12-01T12:24:25.434Z,9.80
2022-12-01T12:27:03.834Z,9.80
2022-12-01T12:29:54.503Z,9.70
2022-12-01T12:33:11.033Z,9.70
2022-12-01T12:35:51.129Z,9.50
2022-12-01T12:38:49.047Z,9.40
2022-12-01T12:41:29.786Z,9.10
2022-12-01T12:44:18.529Z,9.10
2022-12-01T12:46:59.552Z,9.10
2022-12-01T12:49:40.788Z,9.20
2022-12-01T12:52:19.920Z,9.20
2022-12-01T12:54:56.581Z,9.20
2022-12-01T12:57:34.237Z,9.20
2022-12-01T13:00:09.151Z,9.20
2022-12-01T13:02:45.332Z,9.20
2022-12-01T13:05:22.004Z,9.30
2022-12-01T13:08:02.378Z,9.10
2022-12-01T13:10:39.095Z,8.90
2022-12-01T13:13:29.158Z,8.90
2022-12-01T13:16:01.227Z,9.00
2022-12-01T13:18:39.044Z,9.00
2022-12-01T13:21:08.766Z,9.00
2022-12-01T13:23:40.315Z,8.90
2022-12-01T13:26:11.641Z,8.70
2022-12-01T13:28:46.721Z,8.70
2022-12-01T13:31:18.030Z,8.80
2022-12-01T13:33:56.880Z,8.80
2022-12-01T13:39:22.575Z,8.70
2022-12-01T13:42:06.340Z,8.70
2022-12-01T13:44:43.250Z,8.80
2022-12-01T13:47:40.378Z,8.70
2022-12-01T13:50:55.707Z,8.60
2022-12-01T13:53:38.151Z,8.60
2022-12-01T13:56:39.599Z,8.60
2022-12-01T13:59:42.215Z,8.50
2022-12-01T14:02:21.230Z,8.60
2022-12-01T14:04:50.518Z,8.50
2022-12-01T14:07:39.739Z,8.40
2022-12-01T14:10:27.167Z,8.30
2022-12-01T14:13:03.043Z,8.20
2022-12-01T14:15:45.167Z,8.10
2022-12-01T14:18:35.465Z,8.10
2022-12-01T14:21:08.845Z,8.00
2022-12-01T14:23:41.336Z,8.00
2022-12-01T14:26:22.555Z,8.00
2022-12-01T14:29:32.485Z,7.90
2022-12-01T14:32:24.809Z,7.80
2022-12-01T14:35:01.815Z,7.70
2022-12-01T14:37:44.515Z,7.70
2022-12-01T14:40:30.369Z,7.70
2022-12-01T14:43:19.745Z,7.60
2022-12-01T14:46:02.822Z,7.60
2022-12-01T14:48:40.427Z,7.50
2022-12-01T14:51:30.023Z,7.40
2022-12-01T14:54:00.611Z,7.40
2022-12-01T14:56:31.466Z,7.50
2022-12-01T14:59:02.786Z,7.70
2022-12-01T15:01:38.334Z,7.70
2022-12-01T15:04:08.617Z,7.50
2022-12-01T15:06:38.805Z,7.40
2022-12-01T15:12:08.049Z,7.30
2022-12-01T15:14:40.569Z,7.30
2022-12-01T15:17:32.280Z,7.20
2022-12-01T15:20:00.983Z,7.10
2022-12-01T15:22:34.640Z,7.00
2022-12-01T15:25:09.778Z,6.90
2022-12-01T15:27:38.376Z,6.80
2022-12-01T15:30:13.889Z,6.70
2022-12-01T15:32:46.519Z,6.70
2022-12-01T15:35:22.313Z,6.70
2022-12-01T15:37:52.550Z,6.60
2022-12-01T15:43:20.494Z,6.50
2022-12-01T15:45:56.241Z,6.50
2022-12-01T15:48:36.505Z,6.40
2022-12-01T15:51:19.713Z,6.40
2022-12-01T15:53:58.954Z,6.30
2022-12-01T15:56:31.891Z,6.30
2022-12-01T15:59:09.616Z,6.20
2022-12-01T16:01:38.887Z,6.10
2022-12-01T16:04:20.370Z,6.10
2022-12-01T16:06:59.251Z,5.90
2022-12-01T16:09:35.301Z,5.80
2022-12-01T16:12:25.042Z,5.80
2022-12-01T16:15:04.212Z,5.70
2022-12-01T16:17:45.145Z,5.70
2022-12-01T16:20:24.256Z,5.50
2022-12-01T16:22:58.988Z,5.40
2022-12-01T16:25:36.955Z,5.50
2022-12-01T16:28:08.610Z,5.60
2022-12-01T16:30:40.698Z,5.50
2022-12-01T16:33:20.033Z,5.40
2022-12-01T16:35:50.519Z,5.40
2022-12-01T16:38:22.572Z,5.30
2022-12-01T16:40:54.686Z,5.30
2022-12-01T16:43:26.312Z,5.20
2022-12-01T16:46:03.618Z,5.20
2022-12-01T16:48:35.042Z,5.10
2022-12-01T16:51:08.112Z,5.10
2022-12-01T16:53:36.752Z,5.10
2022-12-01T16:56:05.960Z,5.00
2022-12-01T16:58:34.642Z,4.90
2022-12-01T17:01:03.244Z,4.90
2022-12-01T17:03:31.844Z,4.90
2022-12-01T17:06:03.201Z,4.80
2022-12-01T17:08:33.332Z,4.80
2022-12-01T17:11:02.213Z,4.80
2022-12-01T17:13:30.818Z,4.70
2022-12-01T17:15:59.529Z,4.70
2022-12-01T17:18:28.220Z,4.70
2022-12-01T17:21:01.279Z,4.60
2022-12-01T17:23:32.845Z,4.70
2022-12-01T17:26:02.550Z,4.70
2022-12-01T17:28:31.110Z,4.60
2022-12-01T17:31:02.225Z,4.50
2022-12-01T17:33:31.097Z,4.50
2022-12-01T17:36:03.526Z,4.50
2022-12-01T17:38:36.546Z,4.50
2022-12-01T17:41:08.974Z,4.40
2022-12-01T17:43:39.643Z,4.40
2022-12-01T17:46:12.194Z,4.40
2022-12-01T17:48:43.223Z,4.50
2022-12-01T17:51:13.730Z,4.50
2022-12-01T17:53:43.911Z,4.40
2022-12-01T17:56:15.992Z,4.50
2022-12-01T17:58:45.201Z,4.50
2022-12-01T18:01:18.569Z,4.40
2022-12-01T18:03:47.851Z,4.40
2022-12-01T18:06:18.411Z,4.40
2022-12-01T18:08:49.079Z,4.40
2022-12-01T18:11:22.963Z,4.30
2022-12-01T18:13:53.438Z,4.30
2022-12-01T18:16:25.544Z,4.20
2022-12-01T18:18:59.893Z,4.20
2022-12-01T18:21:34.097Z,4.10
2022-12-01T18:24:10.119Z,4.10
2022-12-01T18:26:41.749Z,4.10
2022-12-01T18:29:16.238Z,4.10
2022-12-01T18:31:45.699Z,4.20
2022-12-01T18:34:14.539Z,4.10
2022-12-01T18:36:43.246Z,4.10
2022-12-01T18:39:14.320Z,4.00
2022-12-01T18:41:43.089Z,3.90
2022-12-01T18:44:13.251Z,3.90
2022-12-01T18:46:44.835Z,3.80
2022-12-01T18:49:13.934Z,3.80
2022-12-01T18:51:45.658Z,3.80
2022-12-01T18:54:16.714Z,3.80
2022-12-01T18:56:45.474Z,3.70
2022-12-01T18:59:16.982Z,3.60
2022-12-01T19:01:46.613Z,3.60
2022-12-01T19:04:17.421Z,3.60
2022-12-01T19:06:47.298Z,3.60
2022-12-01T19:09:17.688Z,3.60
2022-12-01T19:11:46.557Z,3.70
2022-12-01T19:14:18.700Z,3.50
2022-12-01T19:16:47.570Z,3.50
2022-12-01T19:19:16.198Z,3.40
2022-12-01T19:21:45.461Z,3.30
2022-12-01T19:24:14.459Z,3.30
2022-12-01T19:26:44.495Z,3.20
2022-12-01T19:29:13.511Z,3.20
2022-12-01T19:31:42.385Z,3.20
2022-12-01T19:34:10.995Z,3.10
2022-12-01T19:36:42.388Z,3.10
2022-12-01T19:39:11.298Z,3.10
2022-12-01T19:41:39.975Z,3.10
2022-12-01T19:44:11.694Z,3.00
2022-12-01T19:46:40.262Z,3.10
2022-12-01T19:49:08.907Z,3.10
2022-12-01T19:51:40.689Z,3.10
2022-12-01T19:54:23.481Z,3.00
2022-12-01T19:56:52.148Z,3.00
2022-12-01T19:59:22.368Z,2.90
2022-12-01T20:01:51.119Z,2.90
2022-12-01T20:04:19.883Z,2.90
2022-12-01T20:06:48.663Z,2.90
2022-12-01T20:09:17.192Z,2.90
2022-12-01T20:11:45.804Z,3.00
2022-12-01T20:14:14.739Z,2.90
2022-12-01T20:16:44.850Z,2.90
2022-12-01T20:19:13.453Z,2.90
2022-12-01T20:21:44.341Z,2.90
2022-12-01T20:24:15.063Z,2.90
2022-12-01T20:26:46.729Z,2.90
2022-12-01T20:29:21.210Z,2.90
2022-12-01T20:31:53.928Z,2.90
2022-12-01T20:34:31.227Z,2.80
2022-12-01T20:37:00.436Z,2.90
2022-12-01T20:39:31.521Z,3.00
2022-12-01T20:42:00.215Z,3.00
2022-12-01T20:44:29.334Z,3.10
2022-12-01T20:46:59.457Z,3.10
2022-12-01T20:49:28.097Z,3.10
2022-12-01T20:51:56.967Z,3.10
2022-12-01T20:54:28.395Z,3.10
2022-12-01T20:56:58.597Z,3.20
2022-12-01T20:59:28.109Z,3.30
2022-12-01T21:01:58.652Z,3.30
2022-12-01T21:04:27.333Z,3.40
2022-12-01T21:06:57.452Z,3.40
2022-12-01T21:09:27.178Z,3.30
2022-12-01T21:12:17.024Z,3.30
2022-12-01T21:14:53.475Z,3.30
2022-12-01T21:17:34.885Z,3.30
2022-12-01T21:20:21.369Z,3.30
2022-12-01T21:22:51.651Z,3.30
2022-12-01T21:25:24.396Z,3.20
2022-12-01T21:27:53.270Z,3.20
2022-12-01T21:30:26.237Z,3.20
2022-12-01T21:33:17.000Z,3.10
2022-12-01T21:35:45.567Z,3.00
2022-12-01T21:38:19.045Z,2.90
2022-12-01T21:40:50.885Z,2.90
2022-12-01T21:43:22.735Z,3.00
2022-12-01T21:45:55.379Z,3.00
2022-12-01T21:48:25.797Z,3.00
2022-12-01T21:51:03.749Z,3.00
2022-12-01T21:53:38.403Z,3.10
2022-12-01T21:56:15.279Z,3.00
2022-12-01T21:58:45.796Z,3.10
2022-12-01T22:01:22.735Z,3.10
2022-12-01T22:03:55.748Z,3.00
2022-12-01T22:06:34.837Z,3.10
2022-12-01T22:09:15.415Z,3.00
2022-12-01T22:11:48.218Z,3.00
2022-12-01T22:14:21.330Z,3.00
2022-12-01T22:16:57.029Z,3.00
2022-12-01T22:19:32.409Z,3.00
2022-12-01T22:22:18.676Z,3.00
2022-12-01T22:24:49.957Z,3.00
2022-12-01T22:27:32.360Z,3.00
2022-12-01T22:30:11.858Z,2.90
2022-12-01T22:32:52.986Z,2.90
2022-12-01T22:35:34.899Z,3.00
2022-12-01T22:38:26.874Z,2.90
2022-12-01T22:40:59.418Z,2.80
2022-12-01T22:43:55.288Z,2.90
2022-12-01T22:46:34.599Z,2.90
2022-12-01T22:49:17.886Z,2.90
2022-12-01T22:51:50.613Z,2.90
2022-12-01T22:54:30.905Z,2.80
2022-12-01T22:57:38.847Z,2.90
2022-12-01T23:00:17.329Z,2.80
2022-12-01T23:02:48.724Z,2.80
2022-12-01T23:05:26.017Z,2.70
2022-12-01T23:07:57.174Z,2.70
2022-12-01T23:10:30.593Z,2.70
2022-12-01T23:13:10.097Z,2.70
2022-12-01T23:15:41.324Z,2.70
2022-12-01T23:18:17.384Z,2.60
2022-12-01T23:20:50.287Z,2.70
2022-12-01T23:23:22.718Z,2.70
2022-12-01T23:25:52.330Z,2.70
2022-12-01T23:28:22.206Z,2.70
2022-12-01T23:30:58.083Z,2.60
2022-12-01T23:33:29.803Z,2.60
2022-12-01T23:36:05.312Z,2.60
2022-12-01T23:38:39.378Z,2.60
2022-12-01T23:41:13.815Z,2.60
2022-12-01T23:43:46.041Z,2.60
2022-12-01T23:46:19.459Z,2.60
2022-12-01T23:48:53.472Z,2.60
2022-12-01T23:51:29.651Z,2.60
2022-12-01T23:54:05.553Z,2.50
2022-12-01T23:56:34.178Z,2.50
2022-12-01T23:59:02.746Z,2.50
